createdAt,value
2023-05-02T00:02:17.449Z,1.65
2023-05-02T00:04:44.459Z,1.60
2023-05-02T00:07:11.898Z,1.73
2023-05-02T00:09:38.828Z,1.70
2023-05-02T00:12:05.854Z,1.92
2023-05-02T00:14:32.923Z,1.90
2023-05-02T00:16:59.870Z,1.80
2023-05-02T00:19:26.745Z,2.08
2023-05-02T00:21:53.584Z,1.80
2023-05-02T00:24:20.386Z,1.77
2023-05-02T00:26:47.420Z,1.48
2023-05-02T00:29:14.209Z,1.50
2023-05-02T00:31:41.946Z,2.50
2023-05-02T00:34:08.757Z,2.63
2023-05-02T00:36:35.598Z,2.40
2023-05-02T00:39:02.419Z,2.15
2023-05-02T00:41:29.274Z,1.90
2023-05-02T00:43:56.077Z,1.83
2023-05-02T00:46:23.143Z,2.20
2023-05-02T00:48:50.407Z,1.58
2023-05-02T00:51:18.216Z,1.90
2023-05-02T00:53:45.692Z,2.65
2023-05-02T00:56:12.546Z,1.90
2023-05-02T00:58:41.257Z,2.17
2023-05-02T01:01:48.319Z,1.73
2023-05-02T01:04:35.839Z,1.77
2023-05-02T01:07:12.560Z,1.27
2023-05-02T01:09:57.941Z,1.83
2023-05-02T01:12:31.908Z,2.63
2023-05-02T01:15:02.334Z,1.90
2023-05-02T01:17:32.956Z,1.60
2023-05-02T01:20:12.248Z,1.80
2023-05-02T01:22:43.713Z,2.15
2023-05-02T01:25:33.541Z,2.00
2023-05-02T01:30:47.498Z,1.40
2023-05-02T01:33:17.169Z,2.42
2023-05-02T01:35:46.426Z,1.88
2023-05-02T01:38:16.736Z,1.85
2023-05-02T01:40:46.251Z,1.90
2023-05-02T01:43:15.679Z,1.80
2023-05-02T01:45:45.652Z,2.30
2023-05-02T01:50:44.437Z,1.98
2023-05-02T01:53:13.859Z,1.55
2023-05-02T01:55:43.933Z,1.73
2023-05-02T01:58:15.185Z,1.25
2023-05-02T02:00:45.256Z,1.55
2023-05-02T02:03:14.146Z,1.30
2023-05-02T02:05:42.501Z,1.20
2023-05-02T02:08:09.671Z,1.30
2023-05-02T02:10:45.822Z,1.35
2023-05-02T02:13:44.896Z,1.40
2023-05-02T02:16:14.670Z,1.40
2023-05-02T02:18:46.014Z,1.20
2023-05-02T02:21:18.926Z,1.40
2023-05-02T02:23:48.560Z,1.50
2023-05-02T02:26:18.092Z,1.23
2023-05-02T02:28:45.145Z,1.38
2023-05-02T02:31:12.128Z,1.58
2023-05-02T02:33:39.017Z,1.35
2023-05-02T02:36:18.214Z,1.73
2023-05-02T02:38:56.562Z,1.42
2023-05-02T02:41:43.617Z,1.77
2023-05-02T02:44:30.967Z,1.65
2023-05-02T02:47:09.576Z,1.73
2023-05-02T02:49:51.453Z,1.70
2023-05-02T02:52:33.855Z,1.48
2023-05-02T02:55:13.124Z,1.60
2023-05-02T02:57:57.979Z,1.80
2023-05-02T03:00:27.371Z,1.63
2023-05-02T03:02:56.536Z,1.77
2023-05-02T03:05:23.966Z,1.80
2023-05-02T03:07:51.208Z,2.22
2023-05-02T03:10:18.615Z,2.20
2023-05-02T03:12:45.490Z,2.20
2023-05-02T03:15:51.327Z,1.60
2023-05-02T03:18:23.099Z,1.77
2023-05-02T03:20:49.917Z,1.85
2023-05-02T03:23:16.798Z,1.80
2023-05-02T03:25:43.588Z,2.00
2023-05-02T03:28:14.025Z,1.80
2023-05-02T03:30:43.901Z,1.80
2023-05-02T03:33:11.081Z,1.60
2023-05-02T03:35:42.621Z,1.60
2023-05-02T03:38:11.073Z,1.60
2023-05-02T03:40:38.058Z,1.80
2023-05-02T03:43:09.315Z,1.67
2023-05-02T03:45:36.239Z,1.90
2023-05-02T03:48:03.185Z,2.00
2023-05-02T03:50:30.928Z,2.15
2023-05-02T03:52:57.932Z,1.95
2023-05-02T03:55:40.753Z,1.77
2023-05-02T03:58:10.655Z,2.10
2023-05-02T04:00:38.736Z,2.20
2023-05-02T04:03:08.606Z,2.50
2023-05-02T04:05:39.285Z,2.63
2023-05-02T04:08:06.414Z,2.92
2023-05-02T04:10:33.326Z,2.67
2023-05-02T04:13:04.020Z,2.67
2023-05-02T04:15:32.918Z,2.88
2023-05-02T04:18:00.749Z,3.15
2023-05-02T04:20:29.218Z,3.63
2023-05-02T04:22:56.081Z,3.63
2023-05-02T04:25:23.071Z,3.67
2023-05-02T04:27:52.286Z,4.00
2023-05-02T04:33:04.330Z,3.03
2023-05-02T04:35:35.078Z,2.65
2023-05-02T04:38:03.290Z,2.08
2023-05-02T04:40:30.866Z,2.08
2023-05-02T04:43:03.442Z,2.15
2023-05-02T04:45:48.293Z,1.98
2023-05-02T04:48:22.817Z,2.20
2023-05-02T04:50:50.035Z,2.60
2023-05-02T04:53:16.910Z,2.67
2023-05-02T04:55:43.841Z,3.15
2023-05-02T04:58:10.991Z,3.60
2023-05-02T05:00:38.867Z,4.05
2023-05-02T05:03:06.427Z,4.13
2023-05-02T05:05:33.914Z,4.32
2023-05-02T05:08:01.676Z,3.78
2023-05-02T05:10:32.201Z,4.13
2023-05-02T05:12:59.031Z,3.92
2023-05-02T05:15:27.240Z,4.05
2023-05-02T05:17:58.606Z,4.25
2023-05-02T05:20:25.498Z,3.53
2023-05-02T05:25:23.064Z,3.72
2023-05-02T05:27:52.471Z,3.75
2023-05-02T05:30:19.753Z,4.18
2023-05-02T05:32:47.512Z,4.30
2023-05-02T05:35:14.442Z,4.72
2023-05-02T05:37:41.479Z,4.20
2023-05-02T05:40:11.670Z,4.18
2023-05-02T05:42:40.986Z,4.70
2023-05-02T05:45:16.344Z,5.00
2023-05-02T05:47:43.712Z,5.35
2023-05-02T05:50:11.020Z,5.90
2023-05-02T05:52:39.492Z,6.07
2023-05-02T05:55:07.133Z,6.47
2023-05-02T05:57:33.993Z,6.20
2023-05-02T06:00:01.582Z,6.43
2023-05-02T06:02:30.168Z,6.43
2023-05-02T06:04:57.638Z,6.75
2023-05-02T06:07:25.834Z,6.60
2023-05-02T06:09:52.630Z,6.97
2023-05-02T06:12:21.312Z,7.32
2023-05-02T06:14:48.084Z,7.60
2023-05-02T06:17:15.428Z,7.45
2023-05-02T06:19:42.271Z,7.65
2023-05-02T06:22:12.264Z,7.32
2023-05-02T06:27:05.769Z,7.07
2023-05-02T06:29:32.613Z,8.18
2023-05-02T06:31:59.448Z,8.18
2023-05-02T06:34:26.358Z,7.82
2023-05-02T06:36:56.701Z,8.18
2023-05-02T06:39:23.584Z,7.93
2023-05-02T06:41:50.499Z,7.88
2023-05-02T06:44:18.327Z,9.52
2023-05-02T06:46:45.177Z,8.98
2023-05-02T06:49:12.069Z,9.38
2023-05-02T06:51:39.594Z,9.45
2023-05-02T06:54:06.585Z,9.35
2023-05-02T06:56:33.403Z,9.45
2023-05-02T06:59:00.309Z,10.00
2023-05-02T07:01:27.698Z,10.25
2023-05-02T07:03:54.630Z,9.65
2023-05-02T07:06:21.945Z,11.13
2023-05-02T07:08:48.854Z,11.10
2023-05-02T07:11:16.036Z,11.73
2023-05-02T07:13:43.237Z,12.85
2023-05-02T07:16:10.095Z,11.05
2023-05-02T07:18:37.349Z,11.55
2023-05-02T07:21:04.298Z,11.75
2023-05-02T07:23:31.219Z,13.70
2023-05-02T07:25:58.004Z,15.75
2023-05-02T07:28:24.845Z,19.92
2023-05-02T07:30:52.195Z,18.27
2023-05-02T07:33:19.210Z,17.40
2023-05-02T07:35:46.115Z,19.33
2023-05-02T07:38:12.981Z,20.10
2023-05-02T07:40:39.809Z,20.17
2023-05-02T07:43:07.538Z,19.77
2023-05-02T07:45:36.228Z,20.50
2023-05-02T07:48:03.897Z,20.63
2023-05-02T07:50:31.009Z,21.52
2023-05-02T07:52:57.865Z,20.73
2023-05-02T07:55:26.532Z,21.23
2023-05-02T07:57:54.030Z,19.80
2023-05-02T08:00:21.164Z,16.45
2023-05-02T08:02:48.122Z,18.70
2023-05-02T08:05:15.099Z,19.50
2023-05-02T08:07:42.543Z,19.27
2023-05-02T08:10:10.417Z,19.88
2023-05-02T08:12:41.440Z,21.27
2023-05-02T08:15:11.897Z,22.40
2023-05-02T08:17:38.791Z,21.13
2023-05-02T08:20:06.484Z,21.20
2023-05-02T08:22:33.245Z,22.05
2023-05-02T08:25:00.147Z,22.17
2023-05-02T08:27:28.228Z,23.13
2023-05-02T08:29:55.021Z,23.67
2023-05-02T08:32:22.443Z,24.00
2023-05-02T08:34:50.823Z,25.13
2023-05-02T08:37:18.466Z,25.80
2023-05-02T08:39:45.818Z,26.08
2023-05-02T08:42:12.840Z,23.50
2023-05-02T08:44:39.783Z,23.45
2023-05-02T08:47:10.706Z,22.67
2023-05-02T08:49:38.697Z,22.23
2023-05-02T08:52:06.761Z,20.75
2023-05-02T08:54:34.105Z,22.45
2023-05-02T08:57:03.373Z,21.10
2023-05-02T08:59:30.558Z,21.88
2023-05-02T09:02:23.226Z,19.90
2023-05-02T09:04:55.878Z,20.17
2023-05-02T09:07:23.130Z,19.95
2023-05-02T09:09:50.207Z,20.33
2023-05-02T09:12:17.044Z,20.63
2023-05-02T09:14:44.951Z,20.50
2023-05-02T09:17:11.917Z,20.85
2023-05-02T09:19:38.712Z,20.45
2023-05-02T09:22:05.525Z,18.20
2023-05-02T09:24:33.493Z,19.67
2023-05-02T09:27:04.120Z,19.17
2023-05-02T09:29:37.651Z,20.38
2023-05-02T09:32:06.106Z,18.08
2023-05-02T09:34:34.433Z,18.85
2023-05-02T09:37:02.745Z,18.40
2023-05-02T09:39:29.663Z,16.38
2023-05-02T09:41:57.908Z,18.45
2023-05-02T09:44:27.214Z,18.02
2023-05-02T09:46:57.271Z,17.38
2023-05-02T09:52:17.368Z,14.45
2023-05-02T09:54:46.333Z,16.13
2023-05-02T09:57:13.282Z,16.85
2023-05-02T09:59:41.014Z,13.38
2023-05-02T10:02:11.007Z,15.60
2023-05-02T10:04:39.574Z,15.13
2023-05-02T10:07:10.292Z,15.45
2023-05-02T10:09:43.162Z,16.92
2023-05-02T10:12:09.937Z,14.95
2023-05-02T10:14:43.719Z,14.98
2023-05-02T10:17:30.947Z,15.32
2023-05-02T10:20:03.665Z,15.90
2023-05-02T10:22:31.526Z,14.23
2023-05-02T10:24:59.822Z,13.70
2023-05-02T10:27:27.148Z,14.45
2023-05-02T10:29:54.858Z,14.30
2023-05-02T10:32:23.345Z,15.02
2023-05-02T10:34:51.779Z,13.82
2023-05-02T10:37:19.414Z,14.27
2023-05-02T10:39:46.235Z,15.00
2023-05-02T10:42:14.402Z,16.98
2023-05-02T10:44:41.848Z,15.88
2023-05-02T10:47:27.641Z,15.82
2023-05-02T10:50:00.963Z,15.23
2023-05-02T10:52:37.865Z,15.48
2023-05-02T10:55:22.205Z,14.85
2023-05-02T10:58:21.332Z,13.77
2023-05-02T11:00:48.335Z,15.00
2023-05-02T11:03:15.243Z,15.50
2023-05-02T11:06:06.934Z,14.65
2023-05-02T11:08:33.898Z,14.50
2023-05-02T11:11:43.016Z,14.00
2023-05-02T11:14:11.760Z,16.90
2023-05-02T11:16:57.476Z,15.98
2023-05-02T11:19:25.577Z,15.85
2023-05-02T11:21:53.836Z,17.33
2023-05-02T11:24:44.429Z,16.27
2023-05-02T11:27:29.845Z,15.13
2023-05-02T11:30:09.991Z,16.77
2023-05-02T11:32:46.754Z,17.27
2023-05-02T11:35:26.844Z,17.35
2023-05-02T11:37:58.643Z,18.65
2023-05-02T11:40:27.038Z,19.77
2023-05-02T11:42:54.559Z,19.65
2023-05-02T11:45:21.811Z,20.45
2023-05-02T11:47:51.410Z,21.80
2023-05-02T11:50:18.574Z,20.50
2023-05-02T11:52:46.100Z,20.95
2023-05-02T11:55:15.767Z,21.30
2023-05-02T11:57:43.087Z,21.38
2023-05-02T12:00:13.359Z,20.83
2023-05-02T12:02:50.262Z,21.08
2023-05-02T12:05:32.409Z,21.27
2023-05-02T12:08:01.100Z,21.27
2023-05-02T12:10:38.244Z,20.75
2023-05-02T12:13:06.592Z,24.42
2023-05-02T12:15:33.960Z,22.65
2023-05-02T12:18:01.594Z,22.38
2023-05-02T12:20:28.504Z,22.30
2023-05-02T12:22:55.539Z,23.77
2023-05-02T12:25:22.497Z,24.13
2023-05-02T12:28:03.079Z,20.75
2023-05-02T12:30:31.523Z,20.20
2023-05-02T12:33:02.595Z,20.08
2023-05-02T12:35:31.118Z,18.17
2023-05-02T12:38:11.790Z,22.02
2023-05-02T12:40:39.918Z,20.60
2023-05-02T12:43:10.493Z,20.92
2023-05-02T12:45:37.581Z,20.25
2023-05-02T12:48:26.278Z,18.83
2023-05-02T12:50:55.238Z,17.40
2023-05-02T12:53:43.087Z,16.77
2023-05-02T12:56:11.470Z,15.35
2023-05-02T12:58:43.351Z,13.68
2023-05-02T13:01:10.681Z,14.43
2023-05-02T13:03:37.995Z,14.48
2023-05-02T13:06:05.304Z,15.77
2023-05-02T13:08:34.264Z,15.88
2023-05-02T13:11:02.834Z,16.27
2023-05-02T13:13:30.591Z,16.80
2023-05-02T13:15:57.401Z,14.73
2023-05-02T13:18:25.054Z,14.05
2023-05-02T13:20:51.915Z,13.63
2023-05-02T13:23:18.719Z,14.88
2023-05-02T13:25:45.592Z,15.68
2023-05-02T13:28:12.392Z,15.43
2023-05-02T13:30:39.237Z,14.95
2023-05-02T13:33:06.145Z,14.40
2023-05-02T13:35:35.168Z,13.45
2023-05-02T13:38:02.865Z,12.73
2023-05-02T13:40:29.664Z,12.50
2023-05-02T13:42:56.425Z,11.02
2023-05-02T13:45:23.363Z,8.80
2023-05-02T13:47:50.207Z,9.35
2023-05-02T13:50:17.179Z,10.50
2023-05-02T13:52:44.144Z,12.10
2023-05-02T13:55:10.915Z,11.25
2023-05-02T13:57:37.730Z,10.50
2023-05-02T14:00:05.547Z,10.77
2023-05-02T14:02:32.555Z,9.45
2023-05-02T14:04:59.404Z,9.60
2023-05-02T14:07:26.340Z,9.15
2023-05-02T14:09:53.141Z,9.73
2023-05-02T14:12:20.088Z,9.38
2023-05-02T14:14:46.903Z,10.95
2023-05-02T14:17:13.944Z,8.50
2023-05-02T14:19:41.663Z,8.43
2023-05-02T14:22:08.519Z,7.97
2023-05-02T14:24:35.386Z,9.07
2023-05-02T14:27:02.436Z,9.23
2023-05-02T14:29:29.303Z,8.32
2023-05-02T14:31:56.187Z,8.38
2023-05-02T14:34:26.734Z,9.30
2023-05-02T14:36:53.609Z,8.20
2023-05-02T14:39:21.053Z,8.88
2023-05-02T14:41:48.134Z,9.80
2023-05-02T14:44:15.058Z,9.20
2023-05-02T14:46:42.106Z,9.05
2023-05-02T14:49:09.225Z,8.80
2023-05-02T14:51:39.440Z,8.70
2023-05-02T14:54:07.091Z,9.45
2023-05-02T14:56:34.070Z,8.15
2023-05-02T14:59:00.903Z,7.28
2023-05-02T15:01:27.873Z,7.50
2023-05-02T15:04:04.918Z,5.72
2023-05-02T15:06:34.929Z,5.20
2023-05-02T15:09:02.166Z,5.15
2023-05-02T15:11:28.978Z,5.65
2023-05-02T15:13:58.472Z,6.28
2023-05-02T15:16:26.854Z,5.75
2023-05-02T15:18:54.037Z,5.30
2023-05-02T15:21:21.366Z,4.80
2023-05-02T15:23:48.212Z,4.20
2023-05-02T15:26:15.169Z,3.53
2023-05-02T15:28:42.121Z,3.55
2023-05-02T15:31:09.001Z,3.08
2023-05-02T15:33:35.985Z,3.20
2023-05-02T15:36:02.880Z,3.60
2023-05-02T15:38:34.678Z,3.83
2023-05-02T15:41:01.482Z,3.13
2023-05-02T15:43:28.382Z,3.25
2023-05-02T15:45:58.456Z,3.00
2023-05-02T15:48:30.800Z,2.83
2023-05-02T15:50:57.772Z,2.70
2023-05-02T15:53:24.663Z,3.30
2023-05-02T15:55:52.838Z,2.65
2023-05-02T15:58:20.229Z,2.47
2023-05-02T16:00:47.544Z,2.70
2023-05-02T16:03:15.770Z,2.88
2023-05-02T16:05:42.732Z,2.15
2023-05-02T16:08:09.889Z,2.47
2023-05-02T16:10:39.081Z,2.10
2023-05-02T16:13:05.954Z,2.90
2023-05-02T16:15:32.817Z,3.35
2023-05-02T16:17:59.718Z,2.45
2023-05-02T16:20:27.772Z,2.50
2023-05-02T16:22:55.157Z,2.55
2023-05-02T16:25:22.155Z,2.45
2023-05-02T16:27:49.149Z,1.80
2023-05-02T16:30:16.339Z,2.20
2023-05-02T16:32:43.231Z,2.28
2023-05-02T16:35:12.790Z,3.00
2023-05-02T16:37:41.341Z,2.83
2023-05-02T16:40:09.625Z,2.13
2023-05-02T16:42:37.198Z,2.15
2023-05-02T16:45:04.494Z,1.83
2023-05-02T16:47:31.365Z,1.80
2023-05-02T16:49:59.704Z,1.88
2023-05-02T16:52:27.249Z,1.80
2023-05-02T16:54:54.725Z,2.60
2023-05-02T16:57:22.096Z,2.25
2023-05-02T16:59:51.075Z,2.25
2023-05-02T17:02:20.744Z,2.10
2023-05-02T17:07:15.586Z,2.20
2023-05-02T17:09:44.338Z,2.30
2023-05-02T17:12:12.735Z,1.90
2023-05-02T17:14:42.364Z,2.20
2023-05-02T17:17:10.128Z,2.10
2023-05-02T17:19:37.242Z,2.40
2023-05-02T17:22:04.997Z,2.20
2023-05-02T17:24:32.554Z,2.30
2023-05-02T17:26:59.779Z,2.42
2023-05-02T17:29:26.748Z,3.15
2023-05-02T17:31:53.635Z,3.22
2023-05-02T17:34:25.523Z,3.85
2023-05-02T17:36:52.373Z,3.83
2023-05-02T17:39:19.257Z,3.53
2023-05-02T17:41:46.212Z,3.72
2023-05-02T17:44:13.030Z,3.38
2023-05-02T17:46:39.949Z,2.90
2023-05-02T17:49:06.812Z,3.85
2023-05-02T17:51:33.683Z,3.97
2023-05-02T17:54:00.855Z,3.15
2023-05-02T17:56:28.396Z,3.35
2023-05-02T17:58:55.328Z,3.25
2023-05-02T18:01:22.196Z,3.55
2023-05-02T18:03:49.949Z,3.30
2023-05-02T18:06:18.099Z,3.10
2023-05-02T18:08:45.852Z,3.85
2023-05-02T18:11:20.155Z,3.00
2023-05-02T18:13:48.392Z,3.28
2023-05-02T18:16:15.443Z,3.13
2023-05-02T18:18:43.664Z,3.42
2023-05-02T18:21:11.459Z,3.38
2023-05-02T18:23:40.034Z,3.75
2023-05-02T18:26:13.248Z,3.33
2023-05-02T18:28:42.714Z,3.08
2023-05-02T18:31:17.532Z,3.30
2023-05-02T18:33:44.502Z,3.55
2023-05-02T18:36:11.381Z,3.13
2023-05-02T18:38:39.009Z,3.00
2023-05-02T18:41:05.955Z,3.17
2023-05-02T18:43:34.847Z,3.08
2023-05-02T18:46:01.826Z,3.10
2023-05-02T18:48:28.679Z,2.47
2023-05-02T18:50:58.672Z,2.80
2023-05-02T18:55:54.157Z,2.47
2023-05-02T18:58:22.428Z,2.53
2023-05-02T19:00:49.282Z,2.47
2023-05-02T19:03:16.330Z,3.13
2023-05-02T19:05:43.805Z,2.85
2023-05-02T19:08:11.145Z,4.85
2023-05-02T19:10:37.969Z,15.05
2023-05-02T19:13:04.835Z,28.25
2023-05-02T19:15:34.059Z,11.75
2023-05-02T19:18:00.994Z,5.60
2023-05-02T19:20:29.876Z,10.93
2023-05-02T19:23:14.612Z,4.55
2023-05-02T19:25:44.881Z,3.47
2023-05-02T19:28:16.622Z,3.05
2023-05-02T19:30:45.252Z,3.00
2023-05-02T19:33:12.489Z,2.70
2023-05-02T19:35:39.440Z,2.95
2023-05-02T19:38:06.348Z,2.80
2023-05-02T19:40:33.275Z,2.75
2023-05-02T19:43:00.063Z,2.70
2023-05-02T19:45:27.653Z,2.65
2023-05-02T19:47:56.851Z,2.70
2023-05-02T19:50:26.228Z,2.53
2023-05-02T19:52:53.056Z,2.83
2023-05-02T19:55:20.726Z,2.70
2023-05-02T19:57:48.628Z,4.18
2023-05-02T20:00:15.898Z,5.28
2023-05-02T20:02:44.460Z,3.45
2023-05-02T20:05:11.629Z,3.85
2023-05-02T20:07:38.566Z,3.20
2023-05-02T20:10:06.242Z,5.35
2023-05-02T20:12:33.096Z,4.85
2023-05-02T20:14:59.874Z,7.38
2023-05-02T20:17:26.882Z,22.23
2023-05-02T20:19:53.950Z,20.73
2023-05-02T20:22:20.794Z,13.02
2023-05-02T20:24:47.752Z,12.25
2023-05-02T20:27:14.589Z,12.93
2023-05-02T20:29:41.556Z,7.40
2023-05-02T20:32:09.040Z,6.68
2023-05-02T20:34:36.120Z,4.53
2023-05-02T20:37:06.862Z,4.45
2023-05-02T20:39:35.104Z,4.30
2023-05-02T20:42:03.610Z,4.05
2023-05-02T20:44:36.451Z,3.22
2023-05-02T20:47:06.835Z,3.08
2023-05-02T20:49:33.710Z,3.05
2023-05-02T20:52:06.546Z,5.43
2023-05-02T20:54:33.702Z,10.80
2023-05-02T20:57:00.497Z,4.38
2023-05-02T20:59:27.318Z,5.55
2023-05-02T21:01:54.193Z,4.90
2023-05-02T21:04:21.280Z,5.20
2023-05-02T21:06:48.172Z,4.70
2023-05-02T21:09:16.872Z,8.27
2023-05-02T21:11:43.763Z,7.72
2023-05-02T21:14:11.696Z,8.38
2023-05-02T21:16:38.482Z,5.60
2023-05-02T21:19:05.455Z,6.28
2023-05-02T21:21:32.283Z,5.38
2023-05-02T21:23:59.133Z,4.32
2023-05-02T21:26:26.162Z,3.97
2023-05-02T21:28:53.357Z,3.50
2023-05-02T21:31:20.290Z,3.88
2023-05-02T21:33:47.189Z,3.67
2023-05-02T21:36:14.945Z,3.70
2023-05-02T21:38:41.746Z,22.20
2023-05-02T21:41:08.939Z,9.20
2023-05-02T21:43:39.649Z,5.30
2023-05-02T21:46:06.680Z,4.93
2023-05-02T21:48:34.004Z,4.05
2023-05-02T21:51:01.011Z,24.55
2023-05-02T21:53:28.005Z,20.35
2023-05-02T21:55:55.221Z,10.23
2023-05-02T21:58:22.093Z,5.68
2023-05-02T22:00:48.958Z,4.60
2023-05-02T22:03:15.867Z,3.50
2023-05-02T22:05:42.795Z,3.83
2023-05-02T22:08:12.524Z,3.85
2023-05-02T22:10:42.411Z,3.90
2023-05-02T22:13:14.747Z,3.83
2023-05-02T22:15:46.579Z,3.58
2023-05-02T22:18:16.567Z,4.00
2023-05-02T22:23:12.375Z,4.00
2023-05-02T22:25:44.795Z,4.20
2023-05-02T22:28:12.274Z,4.88
2023-05-02T22:30:40.115Z,4.60
2023-05-02T22:33:07.463Z,3.95
2023-05-02T22:35:34.457Z,4.53
2023-05-02T22:38:04.885Z,4.40
2023-05-02T22:40:32.563Z,4.95
2023-05-02T22:43:00.662Z,4.93
2023-05-02T22:45:27.835Z,4.07
2023-05-02T22:47:55.155Z,4.50
2023-05-02T22:50:22.120Z,4.53
2023-05-02T22:52:49.141Z,4.10
2023-05-02T22:55:17.281Z,4.43
2023-05-02T22:57:44.211Z,4.03
2023-05-02T23:00:12.196Z,3.65
2023-05-02T23:02:39.616Z,3.42
2023-05-02T23:05:07.218Z,3.90
2023-05-02T23:07:34.154Z,3.75
2023-05-02T23:10:01.580Z,4.03
2023-05-02T23:12:28.728Z,4.82
2023-05-02T23:14:56.806Z,4.25
2023-05-02T23:17:23.770Z,4.30
2023-05-02T23:19:50.750Z,4.38
2023-05-02T23:22:17.606Z,4.05
2023-05-02T23:24:46.801Z,4.45
2023-05-02T23:29:41.789Z,3.15
2023-05-02T23:32:08.789Z,4.00
2023-05-02T23:34:38.885Z,4.30
2023-05-02T23:37:06.780Z,4.18
2023-05-02T23:39:33.713Z,3.85
2023-05-02T23:42:03.461Z,4.25
2023-05-02T23:44:31.178Z,4.25
2023-05-02T23:46:59.427Z,3.97
2023-05-02T23:49:27.158Z,4.03
2023-05-02T23:51:54.020Z,4.40
2023-05-02T23:54:20.861Z,4.35
2023-05-02T23:56:47.789Z,4.65
2023-05-02T23:59:15.127Z,3.95
